Haig, Nebraska
Current Conditions -  °F | °C
As of 2:53 PM on Monday 20 Oct 2014 (Local Time) from KBFF Reporting Station
Clear Clear  
Wind Chill: 80°   Ceiling: Unl
Heat Index: 80°   Visibility: 10mi
Dew Point: 51°   Wind: 18mph
Humidity: 36%   Direction: 180°S
Pressure: 30"   Gusts: 24mph
Location:  41.9575°N, 103.765°W
Report Text: KBFF 202053Z AUTO 18016G21KT 10SM CLR 27/11 A3000 RMK AO2 SLP131 T02670106 56026
Loading
Personal Weather Stations






























Interactive Weather Map
Tropical Storm Tracking
New forecast layout! Learn more

10-Day Weather Forecast

Advertisements
Track Severe Weather on mobile